sensor_id;sensor_type;location;lat;lon;timestamp;pressure;altitude;pressure_sealevel;temperature;humidity
20622;BME280;10470;42.670;23.354;2023-07-22T00:02:23;94793.84;;;25.53;100.00
20622;BME280;10470;42.670;23.354;2023-07-22T00:04:49;94806.19;;;25.36;100.00
20622;BME280;10470;42.670;23.354;2023-07-22T00:07:15;94802.56;;;25.49;100.00
20622;BME280;10470;42.670;23.354;2023-07-22T00:09:41;94802.69;;;25.93;100.00
20622;BME280;10470;42.670;23.354;2023-07-22T00:12:07;94807.13;;;25.88;100.00
20622;BME280;10470;42.670;23.354;2023-07-22T00:14:34;94812.22;;;25.98;100.00
20622;BME280;10470;42.670;23.354;2023-07-22T00:17:00;94816.84;;;25.95;100.00
20622;BME280;10470;42.670;23.354;2023-07-22T00:19:25;94815.78;;;25.77;100.00
20622;BME280;10470;42.670;23.354;2023-07-22T00:21:50;94811.78;;;25.86;100.00
20622;BME280;10470;42.670;23.354;2023-07-22T00:24:17;94813.72;;;25.99;100.00
20622;BME280;10470;42.670;23.354;2023-07-22T00:26:43;94799.97;;;25.80;100.00
20622;BME280;10470;42.670;23.354;2023-07-22T00:29:08;94801.69;;;25.83;100.00
20622;BME280;10470;42.670;23.354;2023-07-22T00:31:34;94811.16;;;25.80;100.00
20622;BME280;10470;42.670;23.354;2023-07-22T00:33:59;94812.38;;;25.42;100.00
20622;BME280;10470;42.670;23.354;2023-07-22T00:36:25;94806.47;;;25.75;100.00
20622;BME280;10470;42.670;23.354;2023-07-22T00:38:51;94815.59;;;25.75;100.00
20622;BME280;10470;42.670;23.354;2023-07-22T00:41:18;94823.69;;;25.65;100.00
20622;BME280;10470;42.670;23.354;2023-07-22T00:43:43;94817.47;;;25.31;100.00
20622;BME280;10470;42.670;23.354;2023-07-22T00:46:09;94820.03;;;25.49;100.00
20622;BME280;10470;42.670;23.354;2023-07-22T00:48:35;94818.97;;;25.32;100.00
20622;BME280;10470;42.670;23.354;2023-07-22T00:51:01;94810.19;;;25.48;100.00
20622;BME280;10470;42.670;23.354;2023-07-22T00:53:26;94824.63;;;25.39;100.00
20622;BME280;10470;42.670;23.354;2023-07-22T00:55:53;94821.16;;;25.46;100.00
20622;BME280;10470;42.670;23.354;2023-07-22T00:58:20;94827.84;;;25.22;100.00
20622;BME280;10470;42.670;23.354;2023-07-22T01:00:45;94831.91;;;25.21;100.00
20622;BME280;10470;42.670;23.354;2023-07-22T01:03:11;94825.66;;;25.28;100.00
20622;BME280;10470;42.670;23.354;2023-07-22T01:05:39;94825.34;;;24.63;100.00
20622;BME280;10470;42.670;23.354;2023-07-22T01:08:05;94811.81;;;25.02;100.00
20622;BME280;10470;42.670;23.354;2023-07-22T01:10:31;94802.94;;;25.24;100.00
20622;BME280;10470;42.670;23.354;2023-07-22T01:12:56;94807.88;;;25.39;100.00
20622;BME280;10470;42.670;23.354;2023-07-22T01:15:23;94793.63;;;25.08;100.00
20622;BME280;10470;42.670;23.354;2023-07-22T01:17:49;94806.41;;;25.17;100.00
20622;BME280;10470;42.670;23.354;2023-07-22T01:20:15;94806.63;;;25.19;100.00
20622;BME280;10470;42.670;23.354;2023-07-22T01:25:09;94815.72;;;25.41;100.00
20622;BME280;10470;42.670;23.354;2023-07-22T01:27:35;94804.00;;;25.21;100.00
20622;BME280;10470;42.670;23.354;2023-07-22T01:30:00;94805.13;;;25.05;100.00
20622;BME280;10470;42.670;23.354;2023-07-22T01:32:27;94801.06;;;25.06;100.00
20622;BME280;10470;42.670;23.354;2023-07-22T01:34:53;94794.81;;;25.34;100.00
20622;BME280;10470;42.670;23.354;2023-07-22T01:37:18;94783.75;;;25.21;100.00
20622;BME280;10470;42.670;23.354;2023-07-22T01:39:44;94787.88;;;25.06;100.00
20622;BME280;10470;42.670;23.354;2023-07-22T01:42:09;94792.16;;;24.87;100.00
20622;BME280;10470;42.670;23.354;2023-07-22T01:44:35;94785.69;;;24.92;100.00
20622;BME280;10470;42.670;23.354;2023-07-22T01:47:04;94788.63;;;25.07;100.00
20622;BME280;10470;42.670;23.354;2023-07-22T01:49:29;94792.91;;;25.08;100.00
20622;BME280;10470;42.670;23.354;2023-07-22T01:51:55;94782.03;;;24.97;100.00
20622;BME280;10470;42.670;23.354;2023-07-22T01:54:21;94780.03;;;25.05;100.00
20622;BME280;10470;42.670;23.354;2023-07-22T01:56:46;94785.28;;;24.88;100.00
20622;BME280;10470;42.670;23.354;2023-07-22T01:59:12;94776.50;;;25.04;100.00
20622;BME280;10470;42.670;23.354;2023-07-22T02:01:37;94776.38;;;24.89;100.00
20622;BME280;10470;42.670;23.354;2023-07-22T02:04:03;94777.41;;;24.99;100.00
20622;BME280;10470;42.670;23.354;2023-07-22T02:06:29;94779.31;;;25.04;100.00
20622;BME280;10470;42.670;23.354;2023-07-22T02:08:54;94778.34;;;25.02;100.00
20622;BME280;10470;42.670;23.354;2023-07-22T02:11:21;94773.31;;;25.00;100.00
20622;BME280;10470;42.670;23.354;2023-07-22T02:13:46;94774.88;;;25.09;100.00
20622;BME280;10470;42.670;23.354;2023-07-22T02:16:12;94774.06;;;25.01;100.00
20622;BME280;10470;42.670;23.354;2023-07-22T02:18:38;94774.47;;;25.05;100.00
20622;BME280;10470;42.670;23.354;2023-07-22T02:21:03;94777.13;;;25.11;100.00
20622;BME280;10470;42.670;23.354;2023-07-22T02:23:29;94784.81;;;24.97;100.00
20622;BME280;10470;42.670;23.354;2023-07-22T02:25:54;94781.94;;;24.89;100.00
20622;BME280;10470;42.670;23.354;2023-07-22T02:28:21;94788.34;;;24.97;100.00
20622;BME280;10470;42.670;23.354;2023-07-22T02:30:48;94782.47;;;24.88;100.00
20622;BME280;10470;42.670;23.354;2023-07-22T02:33:14;94786.16;;;24.82;100.00
20622;BME280;10470;42.670;23.354;2023-07-22T02:35:41;94782.53;;;24.74;100.00
20622;BME280;10470;42.670;23.354;2023-07-22T02:38:06;94780.38;;;24.59;100.00
20622;BME280;10470;42.670;23.354;2023-07-22T02:40:36;94793.41;;;24.65;100.00
20622;BME280;10470;42.670;23.354;2023-07-22T02:43:02;94797.34;;;24.69;100.00
20622;BME280;10470;42.670;23.354;2023-07-22T02:45:28;94793.03;;;24.47;100.00
20622;BME280;10470;42.670;23.354;2023-07-22T02:47:54;94785.84;;;24.52;100.00
20622;BME280;10470;42.670;23.354;2023-07-22T02:50:19;94789.13;;;24.63;100.00
20622;BME280;10470;42.670;23.354;2023-07-22T02:52:45;94780.03;;;24.63;100.00
20622;BME280;10470;42.670;23.354;2023-07-22T02:55:15;94788.72;;;24.59;100.00
20622;BME280;10470;42.670;23.354;2023-07-22T02:57:44;94795.69;;;24.53;100.00
20622;BME280;10470;42.670;23.354;2023-07-22T03:00:12;94787.22;;;24.58;100.00
20622;BME280;10470;42.670;23.354;2023-07-22T03:02:41;94792.59;;;24.43;100.00
20622;BME280;10470;42.670;23.354;2023-07-22T03:05:07;94794.41;;;24.54;100.00
20622;BME280;10470;42.670;23.354;2023-07-22T03:07:37;94793.66;;;24.40;100.00
20622;BME280;10470;42.670;23.354;2023-07-22T03:10:04;94787.13;;;24.51;100.00
20622;BME280;10470;42.670;23.354;2023-07-22T03:12:30;94786.91;;;24.35;100.00
20622;BME280;10470;42.670;23.354;2023-07-22T03:14:55;94786.25;;;24.56;100.00
20622;BME280;10470;42.670;23.354;2023-07-22T03:17:21;94793.00;;;24.60;100.00
20622;BME280;10470;42.670;23.354;2023-07-22T03:19:46;94794.94;;;24.52;100.00
20622;BME280;10470;42.670;23.354;2023-07-22T03:22:15;94799.34;;;24.48;100.00
20622;BME280;10470;42.670;23.354;2023-07-22T03:24:45;94789.28;;;24.45;100.00
20622;BME280;10470;42.670;23.354;2023-07-22T03:27:11;94789.69;;;24.35;100.00
20622;BME280;10470;42.670;23.354;2023-07-22T03:29:37;94795.38;;;24.43;100.00
20622;BME280;10470;42.670;23.354;2023-07-22T03:32:03;94797.44;;;24.29;100.00
20622;BME280;10470;42.670;23.354;2023-07-22T03:34:30;94807.50;;;24.46;100.00
20622;BME280;10470;42.670;23.354;2023-07-22T03:36:56;94814.47;;;24.39;100.00
20622;BME280;10470;42.670;23.354;2023-07-22T03:39:22;94812.94;;;24.38;100.00
20622;BME280;10470;42.670;23.354;2023-07-22T03:41:48;94810.16;;;24.51;100.00
20622;BME280;10470;42.670;23.354;2023-07-22T03:44:13;94817.66;;;24.43;100.00
20622;BME280;10470;42.670;23.354;2023-07-22T03:46:39;94822.16;;;24.33;100.00
20622;BME280;10470;42.670;23.354;2023-07-22T03:49:05;94824.56;;;24.29;100.00
20622;BME280;10470;42.670;23.354;2023-07-22T03:51:31;94827.56;;;24.04;100.00
20622;BME280;10470;42.670;23.354;2023-07-22T03:53:57;94824.56;;;24.02;100.00
20622;BME280;10470;42.670;23.354;2023-07-22T03:56:22;94835.50;;;24.13;100.00
20622;BME280;10470;42.670;23.354;2023-07-22T03:58:52;94830.53;;;24.19;100.00
20622;BME280;10470;42.670;23.354;2023-07-22T04:01:17;94835.16;;;24.17;100.00
20622;BME280;10470;42.670;23.354;2023-07-22T04:03:43;94849.06;;;24.30;100.00
20622;BME280;10470;42.670;23.354;2023-07-22T04:06:08;94845.31;;;24.28;100.00
20622;BME280;10470;42.670;23.354;2023-07-22T04:08:34;94839.47;;;24.18;100.00
20622;BME280;10470;42.670;23.354;2023-07-22T04:10:59;94832.31;;;24.43;100.00
20622;BME280;10470;42.670;23.354;2023-07-22T04:13:26;94839.84;;;24.49;100.00
20622;BME280;10470;42.670;23.354;2023-07-22T04:15:51;94846.50;;;24.46;100.00
20622;BME280;10470;42.670;23.354;2023-07-22T04:18:18;94845.84;;;24.39;100.00
20622;BME280;10470;42.670;23.354;2023-07-22T04:20:45;94842.72;;;24.43;100.00
20622;BME280;10470;42.670;23.354;2023-07-22T04:23:11;94844.13;;;24.63;100.00
20622;BME280;10470;42.670;23.354;2023-07-22T04:25:40;94843.72;;;24.46;100.00
20622;BME280;10470;42.670;23.354;2023-07-22T04:28:06;94850.38;;;24.77;100.00
20622;BME280;10470;42.670;23.354;2023-07-22T04:30:33;94852.91;;;24.67;100.00
20622;BME280;10470;42.670;23.354;2023-07-22T04:32:58;94858.16;;;24.57;100.00
20622;BME280;10470;42.670;23.354;2023-07-22T04:35:23;94869.28;;;24.71;100.00
20622;BME280;10470;42.670;23.354;2023-07-22T04:37:49;94863.13;;;24.11;100.00
20622;BME280;10470;42.670;23.354;2023-07-22T04:40:14;94862.38;;;24.24;100.00
20622;BME280;10470;42.670;23.354;2023-07-22T04:42:42;94864.63;;;24.26;100.00
20622;BME280;10470;42.670;23.354;2023-07-22T04:45:08;94867.69;;;24.35;100.00
20622;BME280;10470;42.670;23.354;2023-07-22T04:47:38;94867.06;;;24.42;100.00
20622;BME280;10470;42.670;23.354;2023-07-22T04:50:09;94864.78;;;24.68;100.00
20622;BME280;10470;42.670;23.354;2023-07-22T04:52:36;94873.28;;;24.62;100.00
20622;BME280;10470;42.670;23.354;2023-07-22T04:55:02;94858.06;;;24.50;100.00
20622;BME280;10470;42.670;23.354;2023-07-22T04:57:42;94862.13;;;24.62;100.00
20622;BME280;10470;42.670;23.354;2023-07-22T05:00:11;94872.75;;;24.50;100.00
20622;BME280;10470;42.670;23.354;2023-07-22T05:02:42;94874.69;;;24.55;100.00
20622;BME280;10470;42.670;23.354;2023-07-22T05:05:14;94871.06;;;24.81;100.00
20622;BME280;10470;42.670;23.354;2023-07-22T05:07:40;94880.56;;;24.99;100.00
20622;BME280;10470;42.670;23.354;2023-07-22T05:10:07;94885.25;;;25.18;100.00
20622;BME280;10470;42.670;23.354;2023-07-22T05:12:37;94883.78;;;25.03;100.00
20622;BME280;10470;42.670;23.354;2023-07-22T05:15:04;94882.31;;;25.23;100.00
20622;BME280;10470;42.670;23.354;2023-07-22T05:17:30;94884.34;;;24.89;100.00
20622;BME280;10470;42.670;23.354;2023-07-22T05:19:57;94884.22;;;24.94;100.00
20622;BME280;10470;42.670;23.354;2023-07-22T05:22:22;94892.59;;;25.28;100.00
20622;BME280;10470;42.670;23.354;2023-07-22T05:24:48;94890.69;;;25.23;100.00
20622;BME280;10470;42.670;23.354;2023-07-22T05:27:13;94888.03;;;25.39;100.00
20622;BME280;10470;42.670;23.354;2023-07-22T05:29:39;94884.78;;;25.48;100.00
20622;BME280;10470;42.670;23.354;2023-07-22T05:32:04;94888.78;;;25.60;100.00
20622;BME280;10470;42.670;23.354;2023-07-22T05:34:30;94899.19;;;25.81;100.00
20622;BME280;10470;42.670;23.354;2023-07-22T05:36:55;94900.06;;;25.76;100.00
20622;BME280;10470;42.670;23.354;2023-07-22T05:39:21;94895.44;;;25.78;100.00
20622;BME280;10470;42.670;23.354;2023-07-22T05:41:46;94899.97;;;25.81;100.00
20622;BME280;10470;42.670;23.354;2023-07-22T05:44:12;94894.25;;;25.87;100.00
20622;BME280;10470;42.670;23.354;2023-07-22T05:46:37;94902.13;;;25.96;100.00
20622;BME280;10470;42.670;23.354;2023-07-22T05:49:03;94897.63;;;25.93;100.00
20622;BME280;10470;42.670;23.354;2023-07-22T05:51:29;94903.63;;;25.97;100.00
20622;BME280;10470;42.670;23.354;2023-07-22T05:53:55;94894.44;;;25.89;100.00
20622;BME280;10470;42.670;23.354;2023-07-22T05:56:20;94893.69;;;25.88;100.00
20622;BME280;10470;42.670;23.354;2023-07-22T05:58:46;94895.38;;;26.12;100.00
20622;BME280;10470;42.670;23.354;2023-07-22T06:01:11;94899.44;;;26.11;100.00
20622;BME280;10470;42.670;23.354;2023-07-22T06:03:37;94906.19;;;26.16;100.00
20622;BME280;10470;42.670;23.354;2023-07-22T06:06:03;94908.34;;;26.31;100.00
20622;BME280;10470;42.670;23.354;2023-07-22T06:08:29;94907.59;;;26.38;100.00
20622;BME280;10470;42.670;23.354;2023-07-22T06:10:56;94922.56;;;26.48;100.00
20622;BME280;10470;42.670;23.354;2023-07-22T06:13:21;94931.06;;;26.35;100.00
20622;BME280;10470;42.670;23.354;2023-07-22T06:15:47;94928.06;;;26.33;100.00
20622;BME280;10470;42.670;23.354;2023-07-22T06:18:12;94927.47;;;26.27;100.00
20622;BME280;10470;42.670;23.354;2023-07-22T06:20:38;94929.91;;;26.30;100.00
20622;BME280;10470;42.670;23.354;2023-07-22T06:23:04;94937.31;;;26.77;100.00
20622;BME280;10470;42.670;23.354;2023-07-22T06:25:29;94936.78;;;26.87;100.00
20622;BME280;10470;42.670;23.354;2023-07-22T06:27:55;94942.25;;;27.08;100.00
20622;BME280;10470;42.670;23.354;2023-07-22T06:30:20;94943.13;;;26.95;100.00
20622;BME280;10470;42.670;23.354;2023-07-22T06:32:46;94946.84;;;26.90;100.00
20622;BME280;10470;42.670;23.354;2023-07-22T06:35:11;94940.81;;;26.70;100.00
20622;BME280;10470;42.670;23.354;2023-07-22T06:37:37;94944.28;;;26.99;100.00
20622;BME280;10470;42.670;23.354;2023-07-22T06:40:03;94948.22;;;27.04;100.00
20622;BME280;10470;42.670;23.354;2023-07-22T06:42:29;94949.94;;;27.15;100.00
20622;BME280;10470;42.670;23.354;2023-07-22T06:44:55;94948.78;;;27.10;100.00
20622;BME280;10470;42.670;23.354;2023-07-22T06:47:20;94950.72;;;27.23;100.00
20622;BME280;10470;42.670;23.354;2023-07-22T06:49:46;94948.31;;;27.27;100.00
20622;BME280;10470;42.670;23.354;2023-07-22T06:52:11;94955.38;;;27.20;100.00
20622;BME280;10470;42.670;23.354;2023-07-22T06:54:37;94953.22;;;26.90;100.00
20622;BME280;10470;42.670;23.354;2023-07-22T06:57:02;94940.53;;;26.97;100.00
20622;BME280;10470;42.670;23.354;2023-07-22T06:59:28;94947.19;;;27.22;100.00
20622;BME280;10470;42.670;23.354;2023-07-22T07:01:54;94932.25;;;27.20;100.00
20622;BME280;10470;42.670;23.354;2023-07-22T07:04:20;94933.47;;;27.55;100.00
20622;BME280;10470;42.670;23.354;2023-07-22T07:06:46;94945.03;;;27.75;100.00
20622;BME280;10470;42.670;23.354;2023-07-22T07:09:11;94931.81;;;27.98;100.00
20622;BME280;10470;42.670;23.354;2023-07-22T07:11:37;94939.47;;;27.90;100.00
20622;BME280;10470;42.670;23.354;2023-07-22T07:14:03;94930.16;;;28.03;100.00
20622;BME280;10470;42.670;23.354;2023-07-22T07:16:30;94940.03;;;27.96;100.00
20622;BME280;10470;42.670;23.354;2023-07-22T07:18:57;94933.13;;;28.05;100.00
20622;BME280;10470;42.670;23.354;2023-07-22T07:21:23;94922.06;;;28.30;100.00
20622;BME280;10470;42.670;23.354;2023-07-22T07:23:49;94933.09;;;28.51;100.00
20622;BME280;10470;42.670;23.354;2023-07-22T07:26:15;94936.44;;;28.42;100.00
20622;BME280;10470;42.670;23.354;2023-07-22T07:28:40;94929.75;;;28.45;100.00
20622;BME280;10470;42.670;23.354;2023-07-22T07:31:06;94918.31;;;28.50;100.00
20622;BME280;10470;42.670;23.354;2023-07-22T07:33:32;94923.72;;;28.56;100.00
20622;BME280;10470;42.670;23.354;2023-07-22T07:35:58;94924.31;;;28.39;100.00
20622;BME280;10470;42.670;23.354;2023-07-22T07:38:23;94918.72;;;28.31;100.00
20622;BME280;10470;42.670;23.354;2023-07-22T07:41:07;94915.16;;;28.54;100.00
20622;BME280;10470;42.670;23.354;2023-07-22T07:43:40;94918.16;;;28.41;100.00
20622;BME280;10470;42.670;23.354;2023-07-22T07:48:47;94919.75;;;28.82;100.00
20622;BME280;10470;42.670;23.354;2023-07-22T07:51:13;94922.41;;;29.13;100.00
20622;BME280;10470;42.670;23.354;2023-07-22T07:53:40;94918.53;;;29.08;100.00
20622;BME280;10470;42.670;23.354;2023-07-22T07:56:06;94915.34;;;29.04;100.00
20622;BME280;10470;42.670;23.354;2023-07-22T07:58:32;94921.31;;;29.16;100.00
20622;BME280;10470;42.670;23.354;2023-07-22T08:00:58;94919.34;;;29.26;100.00
20622;BME280;10470;42.670;23.354;2023-07-22T08:03:23;94910.19;;;29.26;100.00
20622;BME280;10470;42.670;23.354;2023-07-22T08:05:49;94915.50;;;29.14;100.00
20622;BME280;10470;42.670;23.354;2023-07-22T08:08:14;94911.56;;;29.17;100.00
20622;BME280;10470;42.670;23.354;2023-07-22T08:10:39;94908.22;;;29.11;100.00
20622;BME280;10470;42.670;23.354;2023-07-22T08:13:06;94914.13;;;29.23;100.00
20622;BME280;10470;42.670;23.354;2023-07-22T08:15:31;94903.97;;;29.60;100.00
20622;BME280;10470;42.670;23.354;2023-07-22T08:17:57;94910.91;;;29.67;100.00
20622;BME280;10470;42.670;23.354;2023-07-22T08:20:22;94910.78;;;29.49;100.00
20622;BME280;10470;42.670;23.354;2023-07-22T08:22:48;94906.63;;;29.25;100.00
20622;BME280;10470;42.670;23.354;2023-07-22T08:25:13;94906.38;;;29.71;100.00
20622;BME280;10470;42.670;23.354;2023-07-22T08:27:39;94905.16;;;30.07;100.00
20622;BME280;10470;42.670;23.354;2023-07-22T08:30:04;94904.97;;;30.05;100.00
20622;BME280;10470;42.670;23.354;2023-07-22T08:32:30;94910.16;;;29.91;100.00
20622;BME280;10470;42.670;23.354;2023-07-22T08:34:55;94909.31;;;29.81;100.00
20622;BME280;10470;42.670;23.354;2023-07-22T08:37:21;94907.81;;;29.80;100.00
20622;BME280;10470;42.670;23.354;2023-07-22T08:39:47;94895.09;;;29.96;100.00
20622;BME280;10470;42.670;23.354;2023-07-22T08:42:13;94888.41;;;29.92;100.00
20622;BME280;10470;42.670;23.354;2023-07-22T08:44:43;94885.34;;;30.40;100.00
20622;BME280;10470;42.670;23.354;2023-07-22T08:47:10;94881.53;;;30.45;100.00
20622;BME280;10470;42.670;23.354;2023-07-22T08:49:45;94884.19;;;30.43;100.00
20622;BME280;10470;42.670;23.354;2023-07-22T08:52:13;94879.00;;;30.57;100.00
20622;BME280;10470;42.670;23.354;2023-07-22T08:54:40;94868.91;;;30.54;100.00
20622;BME280;10470;42.670;23.354;2023-07-22T08:57:07;94866.31;;;30.48;100.00
20622;BME280;10470;42.670;23.354;2023-07-22T08:59:33;94863.09;;;30.52;100.00
20622;BME280;10470;42.670;23.354;2023-07-22T09:01:59;94857.69;;;30.81;100.00
20622;BME280;10470;42.670;23.354;2023-07-22T09:04:25;94871.03;;;30.80;100.00
20622;BME280;10470;42.670;23.354;2023-07-22T09:06:50;94861.75;;;30.70;100.00
20622;BME280;10470;42.670;23.354;2023-07-22T09:09:17;94855.25;;;31.12;100.00
20622;BME280;10470;42.670;23.354;2023-07-22T09:11:45;94854.28;;;31.00;100.00
20622;BME280;10470;42.670;23.354;2023-07-22T09:14:11;94854.91;;;31.08;100.00
20622;BME280;10470;42.670;23.354;2023-07-22T09:16:37;94860.72;;;31.10;100.00
20622;BME280;10470;42.670;23.354;2023-07-22T09:19:04;94865.81;;;31.21;100.00
20622;BME280;10470;42.670;23.354;2023-07-22T09:21:30;94851.03;;;31.30;100.00
20622;BME280;10470;42.670;23.354;2023-07-22T09:23:56;94854.66;;;31.41;100.00
20622;BME280;10470;42.670;23.354;2023-07-22T09:26:21;94859.22;;;31.09;100.00
20622;BME280;10470;42.670;23.354;2023-07-22T09:31:13;94849.09;;;31.50;100.00
20622;BME280;10470;42.670;23.354;2023-07-22T09:33:38;94853.66;;;31.46;100.00
20622;BME280;10470;42.670;23.354;2023-07-22T09:36:04;94848.47;;;31.52;100.00
20622;BME280;10470;42.670;23.354;2023-07-22T09:38:30;94831.22;;;31.38;100.00
20622;BME280;10470;42.670;23.354;2023-07-22T09:40:55;94848.91;;;31.48;100.00
20622;BME280;10470;42.670;23.354;2023-07-22T09:43:22;94841.53;;;31.99;100.00
20622;BME280;10470;42.670;23.354;2023-07-22T09:45:48;94843.09;;;31.73;100.00
20622;BME280;10470;42.670;23.354;2023-07-22T09:48:13;94841.31;;;31.78;100.00
20622;BME280;10470;42.670;23.354;2023-07-22T09:50:39;94838.09;;;31.54;100.00
20622;BME280;10470;42.670;23.354;2023-07-22T09:53:06;94833.50;;;31.49;100.00
20622;BME280;10470;42.670;23.354;2023-07-22T09:55:32;94832.22;;;31.70;100.00
20622;BME280;10470;42.670;23.354;2023-07-22T10:00:28;94831.69;;;31.91;100.00
20622;BME280;10470;42.670;23.354;2023-07-22T10:02:57;94826.00;;;31.71;100.00
20622;BME280;10470;42.670;23.354;2023-07-22T10:05:24;94823.28;;;32.10;100.00
20622;BME280;10470;42.670;23.354;2023-07-22T10:07:52;94829.38;;;32.07;100.00
20622;BME280;10470;42.670;23.354;2023-07-22T10:10:20;94828.88;;;31.91;100.00
20622;BME280;10470;42.670;23.354;2023-07-22T10:12:46;94824.50;;;32.17;100.00
20622;BME280;10470;42.670;23.354;2023-07-22T10:15:14;94818.84;;;32.46;98.25
20622;BME280;10470;42.670;23.354;2023-07-22T10:17:41;94818.53;;;32.32;90.60
20622;BME280;10470;42.670;23.354;2023-07-22T10:20:11;94821.81;;;32.38;84.78
20622;BME280;10470;42.670;23.354;2023-07-22T10:22:44;94824.81;;;32.60;80.21
20622;BME280;10470;42.670;23.354;2023-07-22T10:25:20;94818.59;;;32.52;81.91
20622;BME280;10470;42.670;23.354;2023-07-22T10:27:47;94815.91;;;32.54;82.17
20622;BME280;10470;42.670;23.354;2023-07-22T10:30:14;94811.44;;;32.70;85.10
20622;BME280;10470;42.670;23.354;2023-07-22T10:32:42;94814.41;;;32.82;81.75
20622;BME280;10470;42.670;23.354;2023-07-22T10:35:10;94815.84;;;33.02;82.17
20622;BME280;10470;42.670;23.354;2023-07-22T10:37:36;94819.44;;;32.83;79.68
20622;BME280;10470;42.670;23.354;2023-07-22T10:40:19;94803.28;;;32.64;83.89
20622;BME280;10470;42.670;23.354;2023-07-22T10:45:24;94801.28;;;33.78;75.31
20622;BME280;10470;42.670;23.354;2023-07-22T10:48:00;94795.69;;;33.68;74.56
20622;BME280;10470;42.670;23.354;2023-07-22T10:50:41;94796.56;;;33.92;68.68
20622;BME280;10470;42.670;23.354;2023-07-22T10:53:12;94803.13;;;34.38;62.71
20622;BME280;10470;42.670;23.354;2023-07-22T11:11:59;94793.03;;;34.68;54.09
20622;BME280;10470;42.670;23.354;2023-07-22T11:14:26;94777.09;;;34.85;53.62
20622;BME280;10470;42.670;23.354;2023-07-22T11:16:52;94782.88;;;34.87;53.16
20622;BME280;10470;42.670;23.354;2023-07-22T11:19:20;94768.00;;;34.98;52.50
20622;BME280;10470;42.670;23.354;2023-07-22T11:21:47;94783.81;;;35.25;53.10
20622;BME280;10470;42.670;23.354;2023-07-22T11:24:13;94785.91;;;35.24;53.09
20622;BME280;10470;42.670;23.354;2023-07-22T11:26:39;94784.94;;;35.19;51.89
20622;BME280;10470;42.670;23.354;2023-07-22T11:29:07;94791.97;;;35.42;52.51
20622;BME280;10470;42.670;23.354;2023-07-22T11:31:35;94786.06;;;35.26;50.85
20622;BME280;10470;42.670;23.354;2023-07-22T11:34:20;94775.66;;;36.01;50.12
20622;BME280;10470;42.670;23.354;2023-07-22T11:36:48;94768.88;;;35.95;49.86
20622;BME280;10470;42.670;23.354;2023-07-22T11:39:15;94779.31;;;36.27;49.69
20622;BME280;10470;42.670;23.354;2023-07-22T11:41:42;94769.69;;;36.21;48.47
20622;BME280;10470;42.670;23.354;2023-07-22T11:44:09;94769.53;;;36.68;48.04
20622;BME280;10470;42.670;23.354;2023-07-22T11:49:35;94759.31;;;37.42;46.35
20622;BME280;10470;42.670;23.354;2023-07-22T11:52:02;94752.25;;;37.43;45.64
20622;BME280;10470;42.670;23.354;2023-07-22T11:54:29;94778.41;;;37.80;45.35
20622;BME280;10470;42.670;23.354;2023-07-22T11:56:56;94764.25;;;37.96;44.66
20622;BME280;10470;42.670;23.354;2023-07-22T11:59:36;94762.31;;;38.29;43.74
20622;BME280;10470;42.670;23.354;2023-07-22T12:02:03;94759.78;;;38.21;44.40
20622;BME280;10470;42.670;23.354;2023-07-22T12:04:31;94762.06;;;37.67;44.86
20622;BME280;10470;42.670;23.354;2023-07-22T12:06:57;94766.22;;;38.35;44.25
20622;BME280;10470;42.670;23.354;2023-07-22T12:09:23;94768.72;;;37.05;45.65
20622;BME280;10470;42.670;23.354;2023-07-22T12:11:55;94757.53;;;38.77;43.41
20622;BME280;10470;42.670;23.354;2023-07-22T12:14:20;94756.16;;;38.48;43.48
20622;BME280;10470;42.670;23.354;2023-07-22T12:16:46;94752.66;;;38.79;43.01
20622;BME280;10470;42.670;23.354;2023-07-22T12:19:12;94759.44;;;38.72;43.49
20622;BME280;10470;42.670;23.354;2023-07-22T12:21:38;94746.72;;;38.59;43.10
20622;BME280;10470;42.670;23.354;2023-07-22T12:24:03;94743.53;;;37.80;44.56
20622;BME280;10470;42.670;23.354;2023-07-22T12:26:32;94745.09;;;37.83;44.77
20622;BME280;10470;42.670;23.354;2023-07-22T12:28:57;94732.97;;;36.88;46.72
20622;BME280;10470;42.670;23.354;2023-07-22T12:31:23;94740.56;;;37.50;45.51
20622;BME280;10470;42.670;23.354;2023-07-22T12:33:48;94729.72;;;37.60;45.34
20622;BME280;10470;42.670;23.354;2023-07-22T12:36:14;94733.81;;;36.90;47.04
20622;BME280;10470;42.670;23.354;2023-07-22T12:38:39;94732.28;;;36.62;47.47
20622;BME280;10470;42.670;23.354;2023-07-22T12:41:04;94726.00;;;36.77;47.65
20622;BME280;10470;42.670;23.354;2023-07-22T12:43:30;94736.31;;;37.93;45.88
20622;BME280;10470;42.670;23.354;2023-07-22T12:45:56;94722.41;;;37.85;45.58
20622;BME280;10470;42.670;23.354;2023-07-22T12:48:21;94707.81;;;37.49;45.63
20622;BME280;10470;42.670;23.354;2023-07-22T12:50:48;94721.25;;;38.04;45.36
20622;BME280;10470;42.670;23.354;2023-07-22T12:53:14;94715.88;;;38.70;45.05
20622;BME280;10470;42.670;23.354;2023-07-22T12:55:39;94720.06;;;38.98;44.55
20622;BME280;10470;42.670;23.354;2023-07-22T12:58:05;94716.31;;;37.35;45.39
20622;BME280;10470;42.670;23.354;2023-07-22T13:00:30;94721.81;;;37.45;46.18
20622;BME280;10470;42.670;23.354;2023-07-22T13:02:56;94712.72;;;37.90;44.37
20622;BME280;10470;42.670;23.354;2023-07-22T13:05:22;94703.59;;;37.64;44.52
20622;BME280;10470;42.670;23.354;2023-07-22T13:07:48;94703.25;;;37.16;44.51
20622;BME280;10470;42.670;23.354;2023-07-22T13:10:16;94697.56;;;37.30;44.61
20622;BME280;10470;42.670;23.354;2023-07-22T13:12:45;94704.16;;;37.90;44.00